sensor_id;sensor_type;location;lat;lon;timestamp;P1;durP1;ratioP1;P2;durP2;ratioP2
69463;SDS011;56665;41.106;16.688;2024-03-07T00:02:26;6.05;;;1.45;;
69463;SDS011;56665;41.106;16.688;2024-03-07T00:05:31;6.97;;;1.65;;
69463;SDS011;56665;41.106;16.688;2024-03-07T00:08:35;10.75;;;1.90;;
69463;SDS011;56665;41.106;16.688;2024-03-07T00:11:39;7.17;;;1.60;;
69463;SDS011;56665;41.106;16.688;2024-03-07T00:14:42;7.90;;;2.03;;
69463;SDS011;56665;41.106;16.688;2024-03-07T00:17:46;7.93;;;2.00;;
69463;SDS011;56665;41.106;16.688;2024-03-07T00:20:50;8.45;;;1.77;;
69463;SDS011;56665;41.106;16.688;2024-03-07T00:23:54;8.38;;;1.83;;
69463;SDS011;56665;41.106;16.688;2024-03-07T00:26:58;9.03;;;2.00;;
69463;SDS011;56665;41.106;16.688;2024-03-07T00:30:05;9.68;;;2.05;;
69463;SDS011;56665;41.106;16.688;2024-03-07T00:33:12;9.43;;;2.00;;
69463;SDS011;56665;41.106;16.688;2024-03-07T00:36:15;9.40;;;1.90;;
69463;SDS011;56665;41.106;16.688;2024-03-07T00:39:19;9.18;;;1.85;;
69463;SDS011;56665;41.106;16.688;2024-03-07T00:42:23;9.57;;;1.70;;
69463;SDS011;56665;41.106;16.688;2024-03-07T00:45:26;11.65;;;2.20;;
69463;SDS011;56665;41.106;16.688;2024-03-07T00:48:30;9.55;;;1.52;;
69463;SDS011;56665;41.106;16.688;2024-03-07T00:51:34;6.85;;;1.50;;
69463;SDS011;56665;41.106;16.688;2024-03-07T00:54:38;8.90;;;1.73;;
69463;SDS011;56665;41.106;16.688;2024-03-07T01:00:03;11.37;;;2.47;;
69463;SDS011;56665;41.106;16.688;2024-03-07T01:03:08;9.57;;;2.28;;
69463;SDS011;56665;41.106;16.688;2024-03-07T01:06:14;10.32;;;2.45;;
69463;SDS011;56665;41.106;16.688;2024-03-07T01:09:18;10.48;;;2.50;;
69463;SDS011;56665;41.106;16.688;2024-03-07T01:12:22;9.25;;;2.05;;
69463;SDS011;56665;41.106;16.688;2024-03-07T01:15:31;12.23;;;2.30;;
69463;SDS011;56665;41.106;16.688;2024-03-07T01:18:35;12.02;;;2.25;;
69463;SDS011;56665;41.106;16.688;2024-03-07T01:21:39;10.50;;;2.10;;
69463;SDS011;56665;41.106;16.688;2024-03-07T01:24:42;8.38;;;2.20;;
69463;SDS011;56665;41.106;16.688;2024-03-07T01:27:46;8.18;;;2.13;;
69463;SDS011;56665;41.106;16.688;2024-03-07T01:30:50;7.60;;;1.80;;
69463;SDS011;56665;41.106;16.688;2024-03-07T01:33:54;8.85;;;2.03;;
69463;SDS011;56665;41.106;16.688;2024-03-07T01:36:58;48.20;;;13.00;;
69463;SDS011;56665;41.106;16.688;2024-03-07T01:40:03;25.73;;;7.25;;
69463;SDS011;56665;41.106;16.688;2024-03-07T01:43:08;8.57;;;2.60;;
69463;SDS011;56665;41.106;16.688;2024-03-07T01:46:13;5.43;;;1.40;;
69463;SDS011;56665;41.106;16.688;2024-03-07T01:49:17;5.63;;;1.17;;
69463;SDS011;56665;41.106;16.688;2024-03-07T01:52:21;7.03;;;1.60;;
69463;SDS011;56665;41.106;16.688;2024-03-07T01:55:26;4.53;;;1.00;;
69463;SDS011;56665;41.106;16.688;2024-03-07T01:58:31;7.40;;;1.50;;
69463;SDS011;56665;41.106;16.688;2024-03-07T02:01:35;3.10;;;1.07;;
69463;SDS011;56665;41.106;16.688;2024-03-07T02:04:40;3.83;;;0.80;;
69463;SDS011;56665;41.106;16.688;2024-03-07T02:07:44;5.97;;;1.05;;
69463;SDS011;56665;41.106;16.688;2024-03-07T02:10:47;5.50;;;1.40;;
69463;SDS011;56665;41.106;16.688;2024-03-07T02:13:51;3.83;;;1.08;;
69463;SDS011;56665;41.106;16.688;2024-03-07T02:16:55;6.20;;;1.10;;
69463;SDS011;56665;41.106;16.688;2024-03-07T02:19:59;6.18;;;2.80;;
69463;SDS011;56665;41.106;16.688;2024-03-07T02:23:03;20.02;;;12.88;;
69463;SDS011;56665;41.106;16.688;2024-03-07T02:26:07;12.20;;;7.38;;
69463;SDS011;56665;41.106;16.688;2024-03-07T02:29:11;8.68;;;5.80;;
69463;SDS011;56665;41.106;16.688;2024-03-07T02:32:15;9.70;;;5.20;;
69463;SDS011;56665;41.106;16.688;2024-03-07T02:35:18;8.85;;;3.97;;
69463;SDS011;56665;41.106;16.688;2024-03-07T02:38:22;6.25;;;2.47;;
69463;SDS011;56665;41.106;16.688;2024-03-07T02:41:26;5.55;;;3.28;;
69463;SDS011;56665;41.106;16.688;2024-03-07T02:44:30;5.43;;;2.50;;
69463;SDS011;56665;41.106;16.688;2024-03-07T02:47:34;4.30;;;2.20;;
69463;SDS011;56665;41.106;16.688;2024-03-07T02:50:39;7.80;;;2.20;;
69463;SDS011;56665;41.106;16.688;2024-03-07T02:53:43;7.70;;;2.38;;
69463;SDS011;56665;41.106;16.688;2024-03-07T02:56:47;8.95;;;2.90;;
69463;SDS011;56665;41.106;16.688;2024-03-07T02:59:50;7.93;;;2.75;;
69463;SDS011;56665;41.106;16.688;2024-03-07T03:02:54;10.90;;;2.83;;
69463;SDS011;56665;41.106;16.688;2024-03-07T03:05:59;7.82;;;2.60;;
69463;SDS011;56665;41.106;16.688;2024-03-07T03:09:03;6.68;;;2.10;;
69463;SDS011;56665;41.106;16.688;2024-03-07T03:12:08;7.20;;;2.80;;
69463;SDS011;56665;41.106;16.688;2024-03-07T03:15:12;9.13;;;2.08;;
69463;SDS011;56665;41.106;16.688;2024-03-07T03:18:16;7.57;;;1.70;;
69463;SDS011;56665;41.106;16.688;2024-03-07T03:21:19;5.50;;;1.50;;
69463;SDS011;56665;41.106;16.688;2024-03-07T03:24:23;3.95;;;1.40;;
69463;SDS011;56665;41.106;16.688;2024-03-07T03:27:27;3.10;;;1.00;;
69463;SDS011;56665;41.106;16.688;2024-03-07T03:30:31;5.10;;;1.20;;
69463;SDS011;56665;41.106;16.688;2024-03-07T03:33:35;3.33;;;1.20;;
69463;SDS011;56665;41.106;16.688;2024-03-07T03:36:39;3.83;;;0.90;;
69463;SDS011;56665;41.106;16.688;2024-03-07T03:39:43;5.43;;;1.00;;
69463;SDS011;56665;41.106;16.688;2024-03-07T03:42:47;5.55;;;1.63;;
69463;SDS011;56665;41.106;16.688;2024-03-07T03:45:52;4.85;;;1.20;;
69463;SDS011;56665;41.106;16.688;2024-03-07T03:48:33;5.00;;;1.03;;
69463;SDS011;56665;41.106;16.688;2024-03-07T03:51:37;3.20;;;0.93;;
69463;SDS011;56665;41.106;16.688;2024-03-07T03:54:40;4.15;;;0.93;;
69463;SDS011;56665;41.106;16.688;2024-03-07T03:57:44;2.13;;;0.70;;
69463;SDS011;56665;41.106;16.688;2024-03-07T04:00:52;4.80;;;1.15;;
69463;SDS011;56665;41.106;16.688;2024-03-07T04:03:57;3.67;;;1.20;;
69463;SDS011;56665;41.106;16.688;2024-03-07T04:07:01;5.82;;;1.10;;
69463;SDS011;56665;41.106;16.688;2024-03-07T04:10:04;6.75;;;1.95;;
69463;SDS011;56665;41.106;16.688;2024-03-07T04:13:11;5.97;;;2.17;;
69463;SDS011;56665;41.106;16.688;2024-03-07T04:16:16;5.40;;;1.80;;
69463;SDS011;56665;41.106;16.688;2024-03-07T04:19:20;4.93;;;1.63;;
69463;SDS011;56665;41.106;16.688;2024-03-07T04:22:24;5.28;;;1.70;;
69463;SDS011;56665;41.106;16.688;2024-03-07T04:25:28;7.22;;;1.50;;
69463;SDS011;56665;41.106;16.688;2024-03-07T04:28:31;8.60;;;1.33;;
69463;SDS011;56665;41.106;16.688;2024-03-07T04:31:36;7.22;;;1.60;;
69463;SDS011;56665;41.106;16.688;2024-03-07T04:34:40;6.67;;;1.70;;
69463;SDS011;56665;41.106;16.688;2024-03-07T04:37:44;5.30;;;1.27;;
69463;SDS011;56665;41.106;16.688;2024-03-07T04:40:48;4.50;;;1.40;;
69463;SDS011;56665;41.106;16.688;2024-03-07T04:43:52;11.38;;;1.75;;
69463;SDS011;56665;41.106;16.688;2024-03-07T04:46:57;4.50;;;1.10;;
69463;SDS011;56665;41.106;16.688;2024-03-07T04:50:00;4.10;;;1.27;;
69463;SDS011;56665;41.106;16.688;2024-03-07T04:53:04;4.57;;;1.33;;
69463;SDS011;56665;41.106;16.688;2024-03-07T04:56:09;6.72;;;1.85;;
69463;SDS011;56665;41.106;16.688;2024-03-07T04:59:13;9.05;;;2.30;;
69463;SDS011;56665;41.106;16.688;2024-03-07T05:02:18;10.55;;;2.97;;
69463;SDS011;56665;41.106;16.688;2024-03-07T05:05:21;9.13;;;3.23;;
69463;SDS011;56665;41.106;16.688;2024-03-07T05:08:26;7.93;;;3.33;;
69463;SDS011;56665;41.106;16.688;2024-03-07T05:11:33;8.18;;;3.70;;
69463;SDS011;56665;41.106;16.688;2024-03-07T05:14:37;12.93;;;4.72;;
69463;SDS011;56665;41.106;16.688;2024-03-07T05:17:41;12.48;;;5.70;;
69463;SDS011;56665;41.106;16.688;2024-03-07T05:20:45;10.00;;;5.40;;
69463;SDS011;56665;41.106;16.688;2024-03-07T05:23:49;19.95;;;9.23;;
69463;SDS011;56665;41.106;16.688;2024-03-07T05:26:53;35.75;;;16.42;;
69463;SDS011;56665;41.106;16.688;2024-03-07T05:29:57;46.30;;;22.80;;
69463;SDS011;56665;41.106;16.688;2024-03-07T05:33:01;43.25;;;19.65;;
69463;SDS011;56665;41.106;16.688;2024-03-07T05:36:05;31.47;;;14.07;;
69463;SDS011;56665;41.106;16.688;2024-03-07T05:39:18;25.17;;;12.52;;
69463;SDS011;56665;41.106;16.688;2024-03-07T05:42:22;28.40;;;14.13;;
69463;SDS011;56665;41.106;16.688;2024-03-07T05:45:28;25.40;;;11.88;;
69463;SDS011;56665;41.106;16.688;2024-03-07T05:48:35;23.67;;;11.90;;
69463;SDS011;56665;41.106;16.688;2024-03-07T05:51:38;24.60;;;11.30;;
69463;SDS011;56665;41.106;16.688;2024-03-07T05:54:45;25.27;;;11.35;;
69463;SDS011;56665;41.106;16.688;2024-03-07T05:57:48;32.22;;;13.98;;
69463;SDS011;56665;41.106;16.688;2024-03-07T06:00:52;53.15;;;22.40;;
69463;SDS011;56665;41.106;16.688;2024-03-07T06:03:56;65.30;;;25.17;;
69463;SDS011;56665;41.106;16.688;2024-03-07T06:07:00;62.13;;;26.07;;
69463;SDS011;56665;41.106;16.688;2024-03-07T06:10:04;46.35;;;19.00;;
69463;SDS011;56665;41.106;16.688;2024-03-07T06:13:14;24.98;;;9.73;;
69463;SDS011;56665;41.106;16.688;2024-03-07T06:16:19;17.40;;;7.00;;
69463;SDS011;56665;41.106;16.688;2024-03-07T06:19:23;15.40;;;5.45;;
69463;SDS011;56665;41.106;16.688;2024-03-07T06:22:27;16.33;;;6.10;;
69463;SDS011;56665;41.106;16.688;2024-03-07T06:25:34;14.40;;;6.38;;
69463;SDS011;56665;41.106;16.688;2024-03-07T06:28:48;12.13;;;5.15;;
69463;SDS011;56665;41.106;16.688;2024-03-07T06:31:52;12.73;;;4.85;;
69463;SDS011;56665;41.106;16.688;2024-03-07T06:34:57;12.55;;;4.50;;
69463;SDS011;56665;41.106;16.688;2024-03-07T06:38:01;9.73;;;3.90;;
69463;SDS011;56665;41.106;16.688;2024-03-07T06:41:06;9.73;;;4.57;;
69463;SDS011;56665;41.106;16.688;2024-03-07T06:44:13;10.65;;;4.38;;
69463;SDS011;56665;41.106;16.688;2024-03-07T06:47:17;8.27;;;3.80;;
69463;SDS011;56665;41.106;16.688;2024-03-07T06:50:21;9.25;;;4.22;;
69463;SDS011;56665;41.106;16.688;2024-03-07T06:53:25;10.90;;;4.10;;
69463;SDS011;56665;41.106;16.688;2024-03-07T06:56:30;10.95;;;3.88;;
69463;SDS011;56665;41.106;16.688;2024-03-07T06:59:34;9.43;;;3.80;;
69463;SDS011;56665;41.106;16.688;2024-03-07T07:02:39;10.27;;;3.65;;
69463;SDS011;56665;41.106;16.688;2024-03-07T07:05:43;9.63;;;3.42;;
69463;SDS011;56665;41.106;16.688;2024-03-07T07:08:48;9.57;;;3.63;;
69463;SDS011;56665;41.106;16.688;2024-03-07T07:11:52;8.77;;;3.33;;
69463;SDS011;56665;41.106;16.688;2024-03-07T07:14:56;10.10;;;3.70;;
69463;SDS011;56665;41.106;16.688;2024-03-07T07:18:00;7.05;;;2.67;;
69463;SDS011;56665;41.106;16.688;2024-03-07T07:21:05;6.43;;;3.13;;
69463;SDS011;56665;41.106;16.688;2024-03-07T07:24:14;8.83;;;3.27;;
69463;SDS011;56665;41.106;16.688;2024-03-07T07:27:17;9.98;;;3.47;;
69463;SDS011;56665;41.106;16.688;2024-03-07T07:30:24;14.05;;;6.15;;
69463;SDS011;56665;41.106;16.688;2024-03-07T07:33:30;12.95;;;7.85;;
69463;SDS011;56665;41.106;16.688;2024-03-07T07:36:34;14.75;;;7.45;;
69463;SDS011;56665;41.106;16.688;2024-03-07T07:39:38;10.57;;;4.57;;
69463;SDS011;56665;41.106;16.688;2024-03-07T07:42:42;8.52;;;3.17;;
69463;SDS011;56665;41.106;16.688;2024-03-07T07:45:46;6.43;;;2.20;;
69463;SDS011;56665;41.106;16.688;2024-03-07T07:48:50;8.13;;;2.00;;
69463;SDS011;56665;41.106;16.688;2024-03-07T07:51:54;6.80;;;2.00;;
69463;SDS011;56665;41.106;16.688;2024-03-07T07:54:57;5.60;;;2.23;;
69463;SDS011;56665;41.106;16.688;2024-03-07T07:58:01;4.82;;;1.85;;
69463;SDS011;56665;41.106;16.688;2024-03-07T08:01:07;7.35;;;1.95;;
69463;SDS011;56665;41.106;16.688;2024-03-07T08:04:12;5.82;;;2.10;;
69463;SDS011;56665;41.106;16.688;2024-03-07T08:07:16;6.80;;;2.08;;
69463;SDS011;56665;41.106;16.688;2024-03-07T08:10:24;3.53;;;1.53;;
69463;SDS011;56665;41.106;16.688;2024-03-07T08:13:31;6.85;;;2.53;;
69463;SDS011;56665;41.106;16.688;2024-03-07T08:16:35;5.18;;;1.90;;
69463;SDS011;56665;41.106;16.688;2024-03-07T08:19:39;6.07;;;1.80;;
69463;SDS011;56665;41.106;16.688;2024-03-07T08:22:43;4.93;;;1.92;;
69463;SDS011;56665;41.106;16.688;2024-03-07T08:25:47;6.47;;;1.90;;
69463;SDS011;56665;41.106;16.688;2024-03-07T08:28:52;6.95;;;1.75;;
69463;SDS011;56665;41.106;16.688;2024-03-07T08:31:55;4.80;;;1.40;;
69463;SDS011;56665;41.106;16.688;2024-03-07T08:34:59;3.33;;;1.17;;
69463;SDS011;56665;41.106;16.688;2024-03-07T08:38:09;4.05;;;1.33;;
69463;SDS011;56665;41.106;16.688;2024-03-07T08:41:15;3.27;;;1.60;;
69463;SDS011;56665;41.106;16.688;2024-03-07T08:44:19;3.42;;;1.30;;
69463;SDS011;56665;41.106;16.688;2024-03-07T08:47:22;5.97;;;1.90;;
69463;SDS011;56665;41.106;16.688;2024-03-07T08:50:26;4.07;;;1.40;;
69463;SDS011;56665;41.106;16.688;2024-03-07T08:53:31;4.53;;;1.23;;
69463;SDS011;56665;41.106;16.688;2024-03-07T08:56:36;7.17;;;1.60;;
69463;SDS011;56665;41.106;16.688;2024-03-07T08:59:40;4.95;;;1.73;;
69463;SDS011;56665;41.106;16.688;2024-03-07T09:02:44;3.85;;;1.55;;
69463;SDS011;56665;41.106;16.688;2024-03-07T09:05:49;4.32;;;1.60;;
69463;SDS011;56665;41.106;16.688;2024-03-07T09:08:53;4.78;;;1.27;;
69463;SDS011;56665;41.106;16.688;2024-03-07T09:11:57;10.43;;;1.80;;
69463;SDS011;56665;41.106;16.688;2024-03-07T09:15:00;4.43;;;1.42;;
69463;SDS011;56665;41.106;16.688;2024-03-07T09:18:04;4.25;;;1.73;;
69463;SDS011;56665;41.106;16.688;2024-03-07T09:21:08;5.13;;;1.85;;
69463;SDS011;56665;41.106;16.688;2024-03-07T09:24:12;7.25;;;1.80;;
69463;SDS011;56665;41.106;16.688;2024-03-07T09:27:18;3.57;;;1.57;;
69463;SDS011;56665;41.106;16.688;2024-03-07T09:30:24;5.57;;;1.50;;
69463;SDS011;56665;41.106;16.688;2024-03-07T09:33:30;7.80;;;1.80;;
69463;SDS011;56665;41.106;16.688;2024-03-07T09:36:34;5.80;;;2.13;;
69463;SDS011;56665;41.106;16.688;2024-03-07T09:39:38;4.75;;;1.90;;
69463;SDS011;56665;41.106;16.688;2024-03-07T09:42:48;6.70;;;1.63;;
69463;SDS011;56665;41.106;16.688;2024-03-07T09:45:55;6.85;;;1.45;;
69463;SDS011;56665;41.106;16.688;2024-03-07T09:48:59;4.25;;;1.30;;
69463;SDS011;56665;41.106;16.688;2024-03-07T09:52:04;9.15;;;1.70;;
69463;SDS011;56665;41.106;16.688;2024-03-07T09:55:12;6.47;;;1.50;;
69463;SDS011;56665;41.106;16.688;2024-03-07T09:58:16;5.17;;;1.40;;
69463;SDS011;56665;41.106;16.688;2024-03-07T10:01:25;4.88;;;1.90;;
69463;SDS011;56665;41.106;16.688;2024-03-07T10:04:31;11.93;;;2.22;;
69463;SDS011;56665;41.106;16.688;2024-03-07T10:07:40;13.88;;;2.00;;
69463;SDS011;56665;41.106;16.688;2024-03-07T10:10:46;14.15;;;2.35;;
69463;SDS011;56665;41.106;16.688;2024-03-07T10:13:52;7.73;;;1.80;;
69463;SDS011;56665;41.106;16.688;2024-03-07T10:16:56;5.43;;;1.80;;
69463;SDS011;56665;41.106;16.688;2024-03-07T10:20:02;3.95;;;1.60;;
69463;SDS011;56665;41.106;16.688;2024-03-07T10:23:07;6.20;;;1.90;;
69463;SDS011;56665;41.106;16.688;2024-03-07T10:26:11;14.23;;;2.17;;
69463;SDS011;56665;41.106;16.688;2024-03-07T10:29:16;10.37;;;2.33;;
69463;SDS011;56665;41.106;16.688;2024-03-07T10:32:23;10.38;;;2.00;;
69463;SDS011;56665;41.106;16.688;2024-03-07T10:35:28;8.43;;;3.00;;
69463;SDS011;56665;41.106;16.688;2024-03-07T10:38:32;7.75;;;3.33;;
69463;SDS011;56665;41.106;16.688;2024-03-07T10:41:36;4.35;;;1.70;;
69463;SDS011;56665;41.106;16.688;2024-03-07T10:44:43;5.10;;;1.73;;
69463;SDS011;56665;41.106;16.688;2024-03-07T10:47:55;4.82;;;1.65;;
69463;SDS011;56665;41.106;16.688;2024-03-07T10:54:29;5.18;;;2.10;;
69463;SDS011;56665;41.106;16.688;2024-03-07T11:00:53;5.23;;;2.10;;
69463;SDS011;56665;41.106;16.688;2024-03-07T11:04:00;7.13;;;2.20;;
69463;SDS011;56665;41.106;16.688;2024-03-07T11:07:07;4.28;;;2.10;;
69463;SDS011;56665;41.106;16.688;2024-03-07T11:10:14;9.70;;;3.70;;
69463;SDS011;56665;41.106;16.688;2024-03-07T11:13:20;4.95;;;2.38;;
69463;SDS011;56665;41.106;16.688;2024-03-07T11:16:24;6.97;;;3.60;;
69463;SDS011;56665;41.106;16.688;2024-03-07T11:19:29;15.57;;;4.93;;
69463;SDS011;56665;41.106;16.688;2024-03-07T11:22:35;7.40;;;2.30;;
69463;SDS011;56665;41.106;16.688;2024-03-07T11:25:39;7.38;;;2.00;;
69463;SDS011;56665;41.106;16.688;2024-03-07T11:28:44;10.93;;;5.63;;
69463;SDS011;56665;41.106;16.688;2024-03-07T11:31:53;11.00;;;5.67;;
69463;SDS011;56665;41.106;16.688;2024-03-07T11:34:56;16.10;;;4.57;;
69463;SDS011;56665;41.106;16.688;2024-03-07T11:38:00;12.40;;;4.63;;
69463;SDS011;56665;41.106;16.688;2024-03-07T11:41:06;7.60;;;2.50;;
69463;SDS011;56665;41.106;16.688;2024-03-07T11:44:11;7.90;;;1.70;;
69463;SDS011;56665;41.106;16.688;2024-03-07T11:47:16;12.10;;;2.70;;
69463;SDS011;56665;41.106;16.688;2024-03-07T11:50:22;31.45;;;5.00;;
69463;SDS011;56665;41.106;16.688;2024-03-07T11:53:28;20.08;;;2.80;;
69463;SDS011;56665;41.106;16.688;2024-03-07T11:56:32;7.97;;;2.85;;
69463;SDS011;56665;41.106;16.688;2024-03-07T11:59:36;5.53;;;2.15;;
69463;SDS011;56665;41.106;16.688;2024-03-07T12:02:41;5.73;;;2.10;;
69463;SDS011;56665;41.106;16.688;2024-03-07T12:05:47;5.95;;;1.88;;
69463;SDS011;56665;41.106;16.688;2024-03-07T12:08:51;8.23;;;3.63;;
69463;SDS011;56665;41.106;16.688;2024-03-07T12:11:56;7.90;;;3.55;;
69463;SDS011;56665;41.106;16.688;2024-03-07T12:15:02;9.85;;;3.80;;
69463;SDS011;56665;41.106;16.688;2024-03-07T12:18:12;8.10;;;3.20;;
69463;SDS011;56665;41.106;16.688;2024-03-07T12:21:21;6.60;;;2.92;;
69463;SDS011;56665;41.106;16.688;2024-03-07T12:24:24;7.43;;;2.95;;
69463;SDS011;56665;41.106;16.688;2024-03-07T12:27:28;6.80;;;2.47;;
69463;SDS011;56665;41.106;16.688;2024-03-07T12:30:33;8.48;;;4.50;;
69463;SDS011;56665;41.106;16.688;2024-03-07T12:33:38;8.30;;;2.40;;
69463;SDS011;56665;41.106;16.688;2024-03-07T12:36:45;5.10;;;1.70;;
69463;SDS011;56665;41.106;16.688;2024-03-07T12:39:49;3.88;;;1.75;;
69463;SDS011;56665;41.106;16.688;2024-03-07T12:43:07;5.03;;;1.70;;
69463;SDS011;56665;41.106;16.688;2024-03-07T12:46:16;4.45;;;1.85;;
69463;SDS011;56665;41.106;16.688;2024-03-07T12:49:24;6.33;;;2.50;;
69463;SDS011;56665;41.106;16.688;2024-03-07T12:52:30;7.88;;;2.10;;
69463;SDS011;56665;41.106;16.688;2024-03-07T12:55:35;5.65;;;2.10;;
69463;SDS011;56665;41.106;16.688;2024-03-07T12:58:43;3.75;;;2.00;;
69463;SDS011;56665;41.106;16.688;2024-03-07T13:01:48;4.28;;;2.25;;
69463;SDS011;56665;41.106;16.688;2024-03-07T13:04:53;5.70;;;2.20;;
69463;SDS011;56665;41.106;16.688;2024-03-07T13:07:57;3.88;;;1.55;;
69463;SDS011;56665;41.106;16.688;2024-03-07T13:11:00;8.63;;;2.00;;
69463;SDS011;56665;41.106;16.688;2024-03-07T13:14:04;3.22;;;1.58;;
69463;SDS011;56665;41.106;16.688;2024-03-07T13:17:09;4.22;;;1.52;;
69463;SDS011;56665;41.106;16.688;2024-03-07T13:20:12;3.77;;;1.37;;
69463;SDS011;56665;41.106;16.688;2024-03-07T13:23:17;4.13;;;1.30;;
69463;SDS011;56665;41.106;16.688;2024-03-07T13:26:21;4.40;;;1.70;;
69463;SDS011;56665;41.106;16.688;2024-03-07T13:29:27;3.45;;;1.35;;
69463;SDS011;56665;41.106;16.688;2024-03-07T13:32:31;5.68;;;1.70;;
69463;SDS011;56665;41.106;16.688;2024-03-07T13:35:37;5.10;;;1.40;;
69463;SDS011;56665;41.106;16.688;2024-03-07T13:38:42;6.32;;;1.60;;
69463;SDS011;56665;41.106;16.688;2024-03-07T13:41:45;6.53;;;1.77;;
69463;SDS011;56665;41.106;16.688;2024-03-07T13:44:51;5.70;;;1.50;;
69463;SDS011;56665;41.106;16.688;2024-03-07T13:47:55;3.38;;;1.48;;
69463;SDS011;56665;41.106;16.688;2024-03-07T13:51:01;3.37;;;1.13;;
69463;SDS011;56665;41.106;16.688;2024-03-07T13:54:11;7.70;;;2.13;;
69463;SDS011;56665;41.106;16.688;2024-03-07T13:57:34;4.47;;;1.58;;
69463;SDS011;56665;41.106;16.688;2024-03-07T14:00:53;4.72;;;1.77;;
69463;SDS011;56665;41.106;16.688;2024-03-07T14:32:16;9.10;;;3.75;;
69463;SDS011;56665;41.106;16.688;2024-03-07T14:35:24;6.40;;;3.55;;
69463;SDS011;56665;41.106;16.688;2024-03-07T14:42:00;16.07;;;8.97;;
69463;SDS011;56665;41.106;16.688;2024-03-07T14:45:06;11.98;;;7.43;;
69463;SDS011;56665;41.106;16.688;2024-03-07T14:48:11;10.38;;;6.28;;
69463;SDS011;56665;41.106;16.688;2024-03-07T14:51:19;10.80;;;4.53;;
69463;SDS011;56665;41.106;16.688;2024-03-07T14:54:23;6.32;;;2.45;;
69463;SDS011;56665;41.106;16.688;2024-03-07T14:57:27;7.00;;;2.67;;
69463;SDS011;56665;41.106;16.688;2024-03-07T15:00:31;11.25;;;5.30;;
69463;SDS011;56665;41.106;16.688;2024-03-07T15:03:37;6.22;;;3.80;;
69463;SDS011;56665;41.106;16.688;2024-03-07T15:06:41;8.13;;;5.90;;
69463;SDS011;56665;41.106;16.688;2024-03-07T15:09:45;9.27;;;4.10;;
69463;SDS011;56665;41.106;16.688;2024-03-07T15:12:49;5.30;;;2.50;;
69463;SDS011;56665;41.106;16.688;2024-03-07T15:15:54;4.93;;;2.35;;
69463;SDS011;56665;41.106;16.688;2024-03-07T15:18:59;4.35;;;2.17;;
69463;SDS011;56665;41.106;16.688;2024-03-07T15:22:03;4.70;;;1.60;;
69463;SDS011;56665;41.106;16.688;2024-03-07T15:25:07;3.25;;;1.50;;
69463;SDS011;56665;41.106;16.688;2024-03-07T15:28:15;4.83;;;1.47;;
69463;SDS011;56665;41.106;16.688;2024-03-07T15:31:20;5.00;;;1.70;;
69463;SDS011;56665;41.106;16.688;2024-03-07T15:34:25;6.30;;;2.08;;
69463;SDS011;56665;41.106;16.688;2024-03-07T15:37:30;7.90;;;2.60;;
69463;SDS011;56665;41.106;16.688;2024-03-07T15:40:34;5.13;;;2.40;;
69463;SDS011;56665;41.106;16.688;2024-03-07T15:43:37;6.03;;;2.93;;
69463;SDS011;56665;41.106;16.688;2024-03-07T15:46:41;8.13;;;3.50;;
69463;SDS011;56665;41.106;16.688;2024-03-07T15:49:45;9.45;;;3.08;;
69463;SDS011;56665;41.106;16.688;2024-03-07T15:52:50;5.35;;;2.60;;
69463;SDS011;56665;41.106;16.688;2024-03-07T15:55:57;7.32;;;3.20;;
69463;SDS011;56665;41.106;16.688;2024-03-07T15:59:01;9.83;;;4.70;;
69463;SDS011;56665;41.106;16.688;2024-03-07T16:02:04;7.95;;;4.05;;
69463;SDS011;56665;41.106;16.688;2024-03-07T16:05:08;7.18;;;3.83;;
69463;SDS011;56665;41.106;16.688;2024-03-07T16:08:13;9.70;;;4.28;;
69463;SDS011;56665;41.106;16.688;2024-03-07T16:11:19;13.40;;;6.45;;
69463;SDS011;56665;41.106;16.688;2024-03-07T16:14:27;12.73;;;7.10;;
69463;SDS011;56665;41.106;16.688;2024-03-07T16:17:31;10.52;;;5.25;;
69463;SDS011;56665;41.106;16.688;2024-03-07T16:20:35;5.35;;;2.85;;
69463;SDS011;56665;41.106;16.688;2024-03-07T16:23:38;6.82;;;2.80;;
69463;SDS011;56665;41.106;16.688;2024-03-07T16:26:43;5.00;;;2.25;;
69463;SDS011;56665;41.106;16.688;2024-03-07T16:29:48;7.77;;;3.47;;
69463;SDS011;56665;41.106;16.688;2024-03-07T16:32:52;8.32;;;3.00;;
69463;SDS011;56665;41.106;16.688;2024-03-07T16:36:14;6.00;;;2.78;;
69463;SDS011;56665;41.106;16.688;2024-03-07T16:39:18;5.72;;;2.58;;
69463;SDS011;56665;41.106;16.688;2024-03-07T16:42:22;5.43;;;2.72;;
69463;SDS011;56665;41.106;16.688;2024-03-07T16:45:29;9.13;;;3.73;;
69463;SDS011;56665;41.106;16.688;2024-03-07T16:48:55;8.30;;;3.97;;
69463;SDS011;56665;41.106;16.688;2024-03-07T16:51:59;7.55;;;3.88;;
69463;SDS011;56665;41.106;16.688;2024-03-07T16:55:06;7.65;;;3.38;;
69463;SDS011;56665;41.106;16.688;2024-03-07T16:58:14;10.77;;;3.65;;
69463;SDS011;56665;41.106;16.688;2024-03-07T17:01:19;9.30;;;2.73;;
69463;SDS011;56665;41.106;16.688;2024-03-07T17:04:23;8.32;;;2.80;;
69463;SDS011;56665;41.106;16.688;2024-03-07T17:07:27;7.88;;;3.20;;
69463;SDS011;56665;41.106;16.688;2024-03-07T17:10:31;8.77;;;2.67;;
69463;SDS011;56665;41.106;16.688;2024-03-07T17:13:41;8.05;;;3.38;;
69463;SDS011;56665;41.106;16.688;2024-03-07T17:16:45;8.90;;;3.80;;
69463;SDS011;56665;41.106;16.688;2024-03-07T17:19:49;8.80;;;4.45;;
69463;SDS011;56665;41.106;16.688;2024-03-07T17:22:54;10.25;;;6.25;;
69463;SDS011;56665;41.106;16.688;2024-03-07T17:25:59;12.02;;;7.30;;
69463;SDS011;56665;41.106;16.688;2024-03-07T17:29:02;11.85;;;7.10;;
69463;SDS011;56665;41.106;16.688;2024-03-07T17:32:06;15.40;;;8.80;;
69463;SDS011;56665;41.106;16.688;2024-03-07T17:35:10;11.82;;;6.28;;
69463;SDS011;56665;41.106;16.688;2024-03-07T17:38:14;10.27;;;5.25;;
69463;SDS011;56665;41.106;16.688;2024-03-07T17:41:17;9.77;;;4.68;;
69463;SDS011;56665;41.106;16.688;2024-03-07T17:44:21;24.90;;;13.05;;
69463;SDS011;56665;41.106;16.688;2024-03-07T17:47:25;25.67;;;13.80;;
69463;SDS011;56665;41.106;16.688;2024-03-07T17:50:32;27.50;;;13.07;;
69463;SDS011;56665;41.106;16.688;2024-03-07T17:53:36;42.80;;;18.15;;
69463;SDS011;56665;41.106;16.688;2024-03-07T17:56:41;48.70;;;20.73;;
69463;SDS011;56665;41.106;16.688;2024-03-07T17:59:46;44.95;;;17.38;;
69463;SDS011;56665;41.106;16.688;2024-03-07T18:02:51;31.67;;;13.73;;
69463;SDS011;56665;41.106;16.688;2024-03-07T18:05:57;31.17;;;12.77;;
69463;SDS011;56665;41.106;16.688;2024-03-07T18:09:01;27.88;;;12.02;;
69463;SDS011;56665;41.106;16.688;2024-03-07T18:12:14;31.52;;;12.27;;
69463;SDS011;56665;41.106;16.688;2024-03-07T18:15:18;28.73;;;12.13;;
69463;SDS011;56665;41.106;16.688;2024-03-07T18:18:23;33.90;;;12.73;;
69463;SDS011;56665;41.106;16.688;2024-03-07T18:21:28;26.92;;;11.35;;
69463;SDS011;56665;41.106;16.688;2024-03-07T18:24:32;19.95;;;8.98;;
69463;SDS011;56665;41.106;16.688;2024-03-07T18:27:36;15.90;;;7.03;;
69463;SDS011;56665;41.106;16.688;2024-03-07T18:30:40;17.45;;;6.43;;
69463;SDS011;56665;41.106;16.688;2024-03-07T18:33:44;25.40;;;9.10;;
69463;SDS011;56665;41.106;16.688;2024-03-07T18:36:48;38.17;;;14.57;;
69463;SDS011;56665;41.106;16.688;2024-03-07T18:39:52;28.23;;;11.75;;
69463;SDS011;56665;41.106;16.688;2024-03-07T18:42:58;28.40;;;9.93;;
69463;SDS011;56665;41.106;16.688;2024-03-07T18:46:02;18.70;;;9.00;;
69463;SDS011;56665;41.106;16.688;2024-03-07T18:49:05;28.77;;;11.20;;
69463;SDS011;56665;41.106;16.688;2024-03-07T18:52:16;27.98;;;11.80;;